createdAt,value
2019-05-26T00:01:43.602Z,81.25
2019-05-26T00:04:12.473Z,81.40
2019-05-26T00:06:41.774Z,81.56
2019-05-26T00:09:11.066Z,81.73
2019-05-26T00:11:39.943Z,81.92
2019-05-26T00:14:08.860Z,82.02
2019-05-26T00:16:37.736Z,82.11
2019-05-26T00:19:07.259Z,82.22
2019-05-26T00:21:36.104Z,82.31
2019-05-26T00:24:04.995Z,82.45
2019-05-26T00:26:33.805Z,82.60
2019-05-26T00:29:02.915Z,82.73
2019-05-26T00:31:32.098Z,82.68
2019-05-26T00:34:01.214Z,82.78
2019-05-26T00:36:30.531Z,82.91
2019-05-26T00:38:59.385Z,83.00
2019-05-26T00:41:28.339Z,83.11
2019-05-26T00:43:57.787Z,83.16
2019-05-26T00:46:26.711Z,83.24
2019-05-26T00:48:55.646Z,83.35
2019-05-26T00:51:24.873Z,83.46
2019-05-26T00:53:54.172Z,83.59
2019-05-26T00:56:23.020Z,83.62
2019-05-26T00:58:52.843Z,83.63
2019-05-26T01:01:21.653Z,83.64
2019-05-26T01:03:50.787Z,83.72
2019-05-26T01:06:19.756Z,83.83
2019-05-26T01:08:48.636Z,83.80
2019-05-26T01:11:17.566Z,83.76
2019-05-26T01:13:46.424Z,83.71
2019-05-26T01:16:15.315Z,83.79
2019-05-26T01:18:44.624Z,83.97
2019-05-26T01:21:13.761Z,84.03
2019-05-26T01:23:43.217Z,84.04
2019-05-26T01:26:12.088Z,84.10
2019-05-26T01:28:40.999Z,84.20
2019-05-26T01:31:10.167Z,84.14
2019-05-26T01:33:39.298Z,83.86
2019-05-26T01:36:08.702Z,83.76
2019-05-26T01:38:38.174Z,83.61
2019-05-26T01:41:07.413Z,83.48
2019-05-26T01:43:36.500Z,83.20
2019-05-26T01:46:05.800Z,83.33
2019-05-26T01:48:34.887Z,83.37
2019-05-26T01:51:03.836Z,83.29
2019-05-26T01:53:32.742Z,83.23
2019-05-26T01:56:01.887Z,83.58
2019-05-26T01:58:30.968Z,83.65
2019-05-26T02:01:00.175Z,83.66
2019-05-26T02:03:29.029Z,83.82
2019-05-26T02:05:58.293Z,83.95
2019-05-26T02:08:38.877Z,84.06
2019-05-26T02:10:58.221Z,84.12
2019-05-26T02:13:27.377Z,84.11
2019-05-26T02:15:56.586Z,84.21
2019-05-26T02:18:25.526Z,84.27
2019-05-26T02:20:54.350Z,84.36
2019-05-26T02:23:23.341Z,84.42
2019-05-26T02:25:52.298Z,84.56
2019-05-26T02:28:21.238Z,84.68
2019-05-26T02:30:50.174Z,84.78
2019-05-26T02:33:19.134Z,84.88
2019-05-26T02:35:48.438Z,84.98
2019-05-26T02:38:17.577Z,84.98
2019-05-26T02:40:46.527Z,84.98
2019-05-26T02:43:15.459Z,85.02
2019-05-26T02:45:44.710Z,85.17
2019-05-26T02:48:14.717Z,85.29
2019-05-26T02:50:43.976Z,85.33
2019-05-26T02:53:13.101Z,85.38
2019-05-26T02:55:42.311Z,85.32
2019-05-26T02:58:11.223Z,85.37
2019-05-26T03:00:44.352Z,85.51
2019-05-26T03:03:14.559Z,85.48
2019-05-26T03:05:45.373Z,85.44
2019-05-26T03:08:14.965Z,85.60
2019-05-26T03:10:44.218Z,85.51
2019-05-26T03:13:17.323Z,85.45
2019-05-26T03:15:47.376Z,85.41
2019-05-26T03:18:16.808Z,85.25
2019-05-26T03:20:45.878Z,85.18
2019-05-26T03:23:16.649Z,85.21
2019-05-26T03:25:45.788Z,85.27
2019-05-26T03:28:14.771Z,85.18
2019-05-26T03:30:44.007Z,85.29
2019-05-26T03:33:12.908Z,85.34
2019-05-26T03:35:42.097Z,85.25
2019-05-26T03:38:11.374Z,85.31
2019-05-26T03:40:40.337Z,85.33
2019-05-26T03:43:09.940Z,85.45
2019-05-26T03:46:16.297Z,85.68
2019-05-26T03:48:45.254Z,85.86
2019-05-26T03:51:14.960Z,86.03
2019-05-26T03:53:44.359Z,86.14
2019-05-26T03:56:13.364Z,86.13
2019-05-26T03:58:42.217Z,86.22
2019-05-26T04:01:11.427Z,86.20
2019-05-26T04:03:40.313Z,86.19
2019-05-26T04:06:09.251Z,86.22
2019-05-26T04:08:38.381Z,86.27
2019-05-26T04:11:07.261Z,86.23
2019-05-26T04:13:36.135Z,86.08
2019-05-26T04:16:05.227Z,85.98
2019-05-26T04:18:34.148Z,85.84
2019-05-26T04:21:03.108Z,85.55
2019-05-26T04:23:32.329Z,85.30
2019-05-26T04:26:01.567Z,85.24
2019-05-26T04:28:30.483Z,84.71
2019-05-26T04:30:59.274Z,83.81
2019-05-26T04:33:28.134Z,82.91
2019-05-26T04:35:57.341Z,82.30
2019-05-26T04:38:26.181Z,81.69
2019-05-26T04:40:55.169Z,81.38
2019-05-26T04:43:24.077Z,81.22
2019-05-26T04:45:53.020Z,81.14
2019-05-26T04:48:22.755Z,81.09
2019-05-26T04:50:51.672Z,80.81
2019-05-26T04:53:20.772Z,80.56
2019-05-26T04:55:49.840Z,80.41
2019-05-26T04:58:18.697Z,80.01
2019-05-26T05:00:47.699Z,79.93
2019-05-26T05:03:16.471Z,79.83
2019-05-26T05:05:45.385Z,79.66
2019-05-26T05:08:14.344Z,79.18
2019-05-26T05:10:43.539Z,78.88
2019-05-26T05:13:12.699Z,78.84
2019-05-26T05:15:41.658Z,78.58
2019-05-26T05:18:10.862Z,78.11
2019-05-26T05:20:40.581Z,77.50
2019-05-26T05:23:09.855Z,76.95
2019-05-26T05:25:39.177Z,76.52
2019-05-26T05:28:08.017Z,76.28
2019-05-26T05:30:37.229Z,75.74
2019-05-26T05:33:06.164Z,74.66
2019-05-26T05:35:35.033Z,73.93
2019-05-26T05:38:03.961Z,73.32
2019-05-26T05:40:33.085Z,72.49
2019-05-26T05:43:02.847Z,71.30
2019-05-26T05:45:31.922Z,70.79
2019-05-26T05:48:00.720Z,70.43
2019-05-26T05:50:29.600Z,69.76
2019-05-26T05:52:58.566Z,69.21
2019-05-26T05:55:27.785Z,68.67
2019-05-26T05:57:56.546Z,68.70
2019-05-26T06:00:25.579Z,69.02
2019-05-26T06:02:54.763Z,69.16
2019-05-26T06:05:23.601Z,69.19
2019-05-26T06:07:52.742Z,69.22
2019-05-26T06:10:22.467Z,69.28
2019-05-26T06:12:51.426Z,69.38
2019-05-26T06:15:20.300Z,69.21
2019-05-26T06:17:49.238Z,69.18
2019-05-26T06:20:18.733Z,69.24
2019-05-26T06:22:47.613Z,68.80
2019-05-26T06:25:17.194Z,68.83
2019-05-26T06:27:46.189Z,68.78
2019-05-26T06:30:15.876Z,69.05
2019-05-26T06:32:44.716Z,68.76
2019-05-26T06:35:14.119Z,68.62
2019-05-26T06:37:43.065Z,68.66
2019-05-26T06:40:12.416Z,68.46
2019-05-26T06:42:42.122Z,68.12
2019-05-26T06:45:11.377Z,68.14
2019-05-26T06:47:40.387Z,67.93
2019-05-26T06:50:10.448Z,67.83
2019-05-26T06:52:39.655Z,67.86
2019-05-26T06:55:08.841Z,67.81
2019-05-26T06:57:37.710Z,67.56
2019-05-26T07:00:07.474Z,67.26
2019-05-26T07:02:36.630Z,66.72
2019-05-26T07:05:05.999Z,66.38
2019-05-26T07:07:35.264Z,65.92
2019-05-26T07:10:04.681Z,65.38
2019-05-26T07:12:33.564Z,65.01
2019-05-26T07:15:02.846Z,64.85
2019-05-26T07:17:31.714Z,64.13
2019-05-26T07:20:00.915Z,63.31
2019-05-26T07:22:30.448Z,63.55
2019-05-26T07:24:59.417Z,63.04
2019-05-26T07:27:28.330Z,62.67
2019-05-26T07:29:57.226Z,62.62
2019-05-26T07:32:26.389Z,62.85
2019-05-26T07:34:55.600Z,63.30
2019-05-26T07:37:24.460Z,63.33
2019-05-26T07:39:53.648Z,63.43
2019-05-26T07:42:22.866Z,63.66
2019-05-26T07:44:51.977Z,63.30
2019-05-26T07:47:21.219Z,63.48
2019-05-26T07:49:50.323Z,63.71
2019-05-26T07:52:19.191Z,63.57
2019-05-26T07:54:48.070Z,63.45
2019-05-26T07:57:16.946Z,62.98
2019-05-26T07:59:46.207Z,63.55
2019-05-26T08:02:15.242Z,63.48
2019-05-26T08:04:44.032Z,63.12
2019-05-26T08:07:13.108Z,62.94
2019-05-26T08:09:42.042Z,63.15
2019-05-26T08:12:24.924Z,62.22
2019-05-26T08:14:41.826Z,62.41
2019-05-26T08:17:11.086Z,62.03
2019-05-26T08:19:40.345Z,62.10
2019-05-26T08:22:09.274Z,62.13
2019-05-26T08:24:38.562Z,58.95
2019-05-26T08:27:07.487Z,58.38
2019-05-26T08:29:36.443Z,57.59
2019-05-26T08:32:05.883Z,56.18
2019-05-26T08:34:34.818Z,53.73
2019-05-26T08:37:04.084Z,53.16
2019-05-26T08:39:33.437Z,52.13
2019-05-26T08:42:02.341Z,52.18
2019-05-26T08:44:31.592Z,52.35
2019-05-26T08:47:00.491Z,51.30
2019-05-26T08:49:29.413Z,50.65
2019-05-26T08:51:58.541Z,50.65
2019-05-26T08:54:27.401Z,50.72
2019-05-26T08:56:56.563Z,50.30
2019-05-26T08:59:25.408Z,50.67
2019-05-26T09:01:54.355Z,50.61
2019-05-26T09:04:23.546Z,50.63
2019-05-26T09:06:52.720Z,50.97
2019-05-26T09:09:21.581Z,50.76
2019-05-26T09:11:50.485Z,51.25
2019-05-26T09:14:19.341Z,51.78
2019-05-26T09:16:48.313Z,51.77
2019-05-26T09:19:17.453Z,51.77
2019-05-26T09:21:46.710Z,51.46
2019-05-26T09:24:15.609Z,50.78
2019-05-26T09:26:45.087Z,51.63
2019-05-26T09:29:13.943Z,52.01
2019-05-26T09:31:42.964Z,53.18
2019-05-26T09:34:12.172Z,52.74
2019-05-26T09:36:43.951Z,53.15
2019-05-26T09:39:12.898Z,53.88
2019-05-26T09:41:41.941Z,53.99
2019-05-26T09:44:11.108Z,54.53
2019-05-26T09:46:40.059Z,54.55
2019-05-26T09:49:09.119Z,54.77
2019-05-26T09:51:38.405Z,53.61
2019-05-26T09:54:07.323Z,53.43
2019-05-26T09:56:36.185Z,53.09
2019-05-26T09:59:05.117Z,52.88
2019-05-26T10:01:34.105Z,52.69
2019-05-26T10:04:02.969Z,52.40
2019-05-26T10:06:31.856Z,52.09
2019-05-26T10:09:00.799Z,51.35
2019-05-26T10:11:30.049Z,51.58
2019-05-26T10:13:58.939Z,51.45
2019-05-26T10:16:27.953Z,50.49
2019-05-26T10:18:57.230Z,50.29
2019-05-26T10:21:26.412Z,49.20
2019-05-26T10:23:55.317Z,48.50
2019-05-26T10:26:24.257Z,47.64
2019-05-26T10:28:53.707Z,46.93
2019-05-26T10:31:22.585Z,47.74
2019-05-26T10:33:51.838Z,47.99
2019-05-26T10:36:20.933Z,48.16
2019-05-26T10:38:49.715Z,48.41
2019-05-26T10:41:18.572Z,47.77
2019-05-26T10:43:47.993Z,48.22
2019-05-26T10:46:17.547Z,48.69
2019-05-26T10:48:46.417Z,48.93
2019-05-26T10:51:15.260Z,49.17
2019-05-26T10:53:44.570Z,49.55
2019-05-26T10:56:13.751Z,49.90
2019-05-26T10:58:42.621Z,50.11
2019-05-26T11:01:11.556Z,49.89
2019-05-26T11:03:40.455Z,49.63
2019-05-26T11:06:09.635Z,50.73
2019-05-26T11:08:38.551Z,50.71
2019-05-26T11:11:07.481Z,50.89
2019-05-26T11:13:36.606Z,50.86
2019-05-26T11:16:05.663Z,50.88
2019-05-26T11:18:34.898Z,50.90
2019-05-26T11:21:04.002Z,51.24
2019-05-26T11:23:32.979Z,50.78
2019-05-26T11:26:01.830Z,50.48
2019-05-26T11:28:30.814Z,50.09
2019-05-26T11:30:59.732Z,50.38
2019-05-26T11:33:29.103Z,49.63
2019-05-26T11:35:58.185Z,49.67
2019-05-26T11:38:27.345Z,50.52
2019-05-26T11:40:57.117Z,50.11
2019-05-26T11:43:26.265Z,49.32
2019-05-26T11:45:55.224Z,49.23
2019-05-26T11:48:39.709Z,48.68
2019-05-26T11:51:09.011Z,47.62
2019-05-26T11:53:37.799Z,46.99
2019-05-26T11:56:06.622Z,47.06
2019-05-26T11:58:35.515Z,47.26
2019-05-26T12:01:04.427Z,47.93
2019-05-26T12:03:33.288Z,47.49
2019-05-26T12:06:02.224Z,46.56
2019-05-26T12:08:31.450Z,46.86
2019-05-26T12:11:00.315Z,46.82
2019-05-26T12:13:29.514Z,47.59
2019-05-26T12:15:58.450Z,47.15
2019-05-26T12:18:27.305Z,46.57
2019-05-26T12:20:56.211Z,47.10
2019-05-26T12:23:25.159Z,47.41
2019-05-26T12:25:54.270Z,47.19
2019-05-26T12:28:23.491Z,46.37
2019-05-26T12:30:52.437Z,46.30
2019-05-26T12:33:21.307Z,46.10
2019-05-26T12:35:50.457Z,46.44
2019-05-26T12:38:19.327Z,46.29
2019-05-26T12:40:48.227Z,46.61
2019-05-26T12:43:17.262Z,46.05
2019-05-26T12:45:46.476Z,46.35
2019-05-26T12:48:15.415Z,46.68
2019-05-26T12:50:44.540Z,47.28
2019-05-26T12:53:13.478Z,47.36
2019-05-26T12:55:42.479Z,46.66
2019-05-26T12:58:11.597Z,45.90
2019-05-26T13:00:48.711Z,46.75
2019-05-26T13:03:11.451Z,46.58
2019-05-26T13:05:40.235Z,46.86
2019-05-26T13:08:09.539Z,46.63
2019-05-26T13:10:38.407Z,47.56
2019-05-26T13:13:07.341Z,47.91
2019-05-26T13:15:36.203Z,47.98
2019-05-26T13:18:05.145Z,48.52
2019-05-26T13:20:33.987Z,48.69
2019-05-26T13:23:03.200Z,48.19
2019-05-26T13:25:32.397Z,48.32
2019-05-26T13:28:01.328Z,48.97
2019-05-26T13:30:30.696Z,49.03
2019-05-26T13:33:00.248Z,48.97
2019-05-26T13:35:29.119Z,49.20
2019-05-26T13:37:58.028Z,49.29
2019-05-26T13:40:29.543Z,49.77
2019-05-26T13:42:58.571Z,49.42
2019-05-26T13:45:27.733Z,49.66
2019-05-26T13:47:57.005Z,49.17
2019-05-26T13:50:26.520Z,49.64
2019-05-26T13:52:55.808Z,49.54
2019-05-26T13:55:24.757Z,49.71
2019-05-26T13:57:53.617Z,50.13
2019-05-26T14:00:24.101Z,49.97
2019-05-26T14:02:53.332Z,50.45
2019-05-26T14:05:22.297Z,50.52
2019-05-26T14:07:51.440Z,50.87
2019-05-26T14:10:31.638Z,50.70
2019-05-26T14:13:00.869Z,50.91
2019-05-26T14:15:37.991Z,50.85
2019-05-26T14:18:01.007Z,50.87
2019-05-26T14:20:39.757Z,51.09
2019-05-26T14:23:09.715Z,50.76
2019-05-26T14:25:39.251Z,50.57
2019-05-26T14:28:08.585Z,50.08
2019-05-26T14:30:37.533Z,50.64
2019-05-26T14:33:06.549Z,51.15
2019-05-26T14:35:36.266Z,51.34
2019-05-26T14:38:05.236Z,51.45
2019-05-26T14:40:34.476Z,50.73
2019-05-26T14:43:03.738Z,50.74
2019-05-26T14:45:32.688Z,50.38
2019-05-26T14:48:01.673Z,50.34
2019-05-26T14:50:30.932Z,50.94
2019-05-26T14:52:59.780Z,51.39
2019-05-26T14:55:28.745Z,51.59
2019-05-26T14:58:12.348Z,51.87
2019-05-26T15:00:28.621Z,52.39
2019-05-26T15:02:57.771Z,53.10
2019-05-26T15:05:26.642Z,52.85
2019-05-26T15:07:55.577Z,52.81
2019-05-26T15:10:24.773Z,52.70
2019-05-26T15:12:53.708Z,52.96
2019-05-26T15:15:22.812Z,52.93
2019-05-26T15:17:51.683Z,53.34
2019-05-26T15:20:21.301Z,53.54
2019-05-26T15:22:51.107Z,53.62
2019-05-26T15:25:20.513Z,53.55
2019-05-26T15:27:49.787Z,53.67
2019-05-26T15:30:19.047Z,53.46
2019-05-26T15:32:48.868Z,53.52
2019-05-26T15:35:17.817Z,52.96
2019-05-26T15:37:47.013Z,53.28
2019-05-26T15:40:15.979Z,53.21
2019-05-26T15:42:45.543Z,52.92
2019-05-26T15:45:15.688Z,52.53
2019-05-26T15:47:44.574Z,53.19
2019-05-26T15:53:00.228Z,54.70
2019-05-26T15:55:29.447Z,54.68
2019-05-26T15:57:58.624Z,54.61
2019-05-26T16:00:27.526Z,54.76
2019-05-26T16:02:56.351Z,55.35
2019-05-26T16:05:25.268Z,56.50
2019-05-26T16:07:54.116Z,57.58
2019-05-26T16:10:22.958Z,57.10
2019-05-26T16:12:51.808Z,57.28
2019-05-26T16:15:20.773Z,57.30
2019-05-26T16:17:49.722Z,56.95
2019-05-26T16:20:18.811Z,56.54
2019-05-26T16:22:48.036Z,56.65
2019-05-26T16:25:16.972Z,56.50
2019-05-26T16:27:45.846Z,55.93
2019-05-26T16:30:15.328Z,56.60
2019-05-26T16:32:44.146Z,56.69
2019-05-26T16:35:13.098Z,56.72
2019-05-26T16:37:41.963Z,56.44
2019-05-26T16:40:11.069Z,56.76
2019-05-26T16:42:40.282Z,56.76
2019-05-26T16:45:09.364Z,56.99
2019-05-26T16:47:38.245Z,57.66
2019-05-26T16:50:07.290Z,57.05
2019-05-26T16:52:36.265Z,57.18
2019-05-26T16:55:06.019Z,57.25
2019-05-26T16:57:35.176Z,57.98
2019-05-26T17:00:04.406Z,57.79
2019-05-26T17:02:33.257Z,57.68
2019-05-26T17:05:02.451Z,56.23
2019-05-26T17:07:31.321Z,56.73
2019-05-26T17:10:00.540Z,56.96
2019-05-26T17:12:29.577Z,56.29
2019-05-26T17:14:58.429Z,56.67
2019-05-26T17:17:27.311Z,57.16
2019-05-26T17:19:56.258Z,57.14
2019-05-26T17:22:25.227Z,57.64
2019-05-26T17:24:54.579Z,57.68
2019-05-26T17:27:24.117Z,58.00
2019-05-26T17:29:53.058Z,57.90
2019-05-26T17:32:22.178Z,58.16
2019-05-26T17:34:51.029Z,58.09
2019-05-26T17:37:19.986Z,57.90
2019-05-26T17:39:48.852Z,57.86
2019-05-26T17:42:18.135Z,58.00
2019-05-26T17:44:47.440Z,57.88
2019-05-26T17:47:29.236Z,57.61
2019-05-26T17:49:47.048Z,57.82
2019-05-26T17:52:15.796Z,58.01
2019-05-26T17:54:44.575Z,58.41
2019-05-26T17:57:13.495Z,59.13
2019-05-26T17:59:42.350Z,59.25
2019-05-26T18:02:11.300Z,59.18
2019-05-26T18:04:40.158Z,59.58
2019-05-26T18:07:09.336Z,59.75
2019-05-26T18:09:44.257Z,60.22
2019-05-26T18:12:09.595Z,60.52
2019-05-26T18:14:38.482Z,60.35
2019-05-26T18:17:08.253Z,60.76
2019-05-26T18:19:37.248Z,60.74
2019-05-26T18:22:06.303Z,60.91
2019-05-26T18:24:35.197Z,61.10
2019-05-26T18:27:04.054Z,61.21
2019-05-26T18:29:33.032Z,61.63
2019-05-26T18:32:02.430Z,61.84
2019-05-26T18:34:31.868Z,62.10
2019-05-26T18:37:01.050Z,62.27
2019-05-26T18:39:29.929Z,62.48
2019-05-26T18:41:58.785Z,62.30
2019-05-26T18:44:27.638Z,62.14
2019-05-26T18:46:56.499Z,62.52
2019-05-26T18:49:25.435Z,62.66
2019-05-26T18:51:54.307Z,62.78
2019-05-26T18:54:23.182Z,62.99
2019-05-26T18:56:52.128Z,63.30
2019-05-26T18:59:21.249Z,63.78
2019-05-26T19:01:50.470Z,63.95
2019-05-26T19:04:19.416Z,64.00
2019-05-26T19:06:48.314Z,64.10
2019-05-26T19:09:17.308Z,64.16
2019-05-26T19:11:46.202Z,64.16
2019-05-26T19:14:15.457Z,64.47
2019-05-26T19:16:44.324Z,64.76
2019-05-26T19:19:13.216Z,65.18
2019-05-26T19:21:42.180Z,65.35
2019-05-26T19:24:11.286Z,65.56
2019-05-26T19:26:40.496Z,65.86
2019-05-26T19:29:09.431Z,66.30
2019-05-26T19:31:38.321Z,66.79
2019-05-26T19:34:07.292Z,66.79
2019-05-26T19:36:36.177Z,67.01
2019-05-26T19:39:08.013Z,67.36
2019-05-26T19:41:39.281Z,67.50
2019-05-26T19:44:07.858Z,67.77
2019-05-26T19:46:37.019Z,67.87
2019-05-26T19:49:05.982Z,68.19
2019-05-26T19:51:35.430Z,68.34
2019-05-26T19:54:04.492Z,68.60
2019-05-26T19:56:33.531Z,68.79
2019-05-26T19:59:02.474Z,68.84
2019-05-26T20:01:32.128Z,68.91
2019-05-26T20:04:01.270Z,69.10
2019-05-26T20:06:30.211Z,69.16
2019-05-26T20:08:59.012Z,69.17
2019-05-26T20:11:28.115Z,69.53
2019-05-26T20:13:57.219Z,69.71
2019-05-26T20:16:26.175Z,69.80
2019-05-26T20:18:55.115Z,69.99
2019-05-26T20:21:23.978Z,69.83
2019-05-26T20:23:52.819Z,69.88
2019-05-26T20:26:21.601Z,69.93
2019-05-26T20:28:50.641Z,69.84
2019-05-26T20:31:19.789Z,69.78
2019-05-26T20:33:48.848Z,69.77
2019-05-26T20:36:17.802Z,69.75
2019-05-26T20:38:47.084Z,69.63
2019-05-26T20:41:16.067Z,69.30
2019-05-26T20:43:44.913Z,68.95
2019-05-26T20:46:14.471Z,68.96
2019-05-26T20:48:43.771Z,68.81
2019-05-26T20:51:12.922Z,68.67
2019-05-26T20:53:41.871Z,68.35
2019-05-26T20:56:10.829Z,68.05
2019-05-26T20:58:39.683Z,67.56
2019-05-26T21:01:08.576Z,66.95
2019-05-26T21:03:37.810Z,66.12
2019-05-26T21:06:06.676Z,65.78
2019-05-26T21:08:35.587Z,65.23
2019-05-26T21:11:04.429Z,64.90
2019-05-26T21:13:33.291Z,64.29
2019-05-26T21:16:02.436Z,64.21
2019-05-26T21:18:31.406Z,63.95
2019-05-26T21:21:15.653Z,63.74
2019-05-26T21:23:44.618Z,63.47
2019-05-26T21:26:13.858Z,62.99
2019-05-26T21:28:43.168Z,62.92
2019-05-26T21:31:12.162Z,62.83
2019-05-26T21:33:41.378Z,62.67
2019-05-26T21:36:10.373Z,62.72
2019-05-26T21:38:39.250Z,62.89
2019-05-26T21:41:09.057Z,62.87
2019-05-26T21:43:38.485Z,62.81
2019-05-26T21:46:07.338Z,62.84
2019-05-26T21:48:36.220Z,62.75
2019-05-26T21:51:05.484Z,62.73
2019-05-26T21:53:34.407Z,62.98
2019-05-26T21:56:03.261Z,63.04
2019-05-26T21:58:32.254Z,63.77
2019-05-26T22:01:01.206Z,63.77
2019-05-26T22:03:30.274Z,63.82
2019-05-26T22:05:59.162Z,63.94
2019-05-26T22:08:28.014Z,64.49
2019-05-26T22:10:57.299Z,64.57
2019-05-26T22:13:26.059Z,64.84
2019-05-26T22:15:55.225Z,65.42
2019-05-26T22:18:24.439Z,65.89
2019-05-26T22:20:53.258Z,66.34
2019-05-26T22:23:22.139Z,66.82
2019-05-26T22:25:51.133Z,67.02
2019-05-26T22:28:20.055Z,67.37
2019-05-26T22:30:49.538Z,67.74
2019-05-26T22:33:18.309Z,67.80
2019-05-26T22:35:48.130Z,68.10
2019-05-26T22:38:17.001Z,68.25
2019-05-26T22:40:45.885Z,68.56
2019-05-26T22:43:14.723Z,68.65
2019-05-26T22:45:43.913Z,68.74
2019-05-26T22:48:12.746Z,69.00
2019-05-26T22:50:41.575Z,69.25
2019-05-26T22:53:10.699Z,69.34
2019-05-26T22:55:40.179Z,69.43
2019-05-26T22:58:09.051Z,69.56
2019-05-26T23:00:38.124Z,69.68
2019-05-26T23:03:07.138Z,69.91
2019-05-26T23:05:36.069Z,69.96
2019-05-26T23:08:05.248Z,69.85
2019-05-26T23:10:34.126Z,69.89
2019-05-26T23:13:03.828Z,69.97
2019-05-26T23:15:32.706Z,70.00
2019-05-26T23:18:01.627Z,70.14
2019-05-26T23:20:30.513Z,70.11
2019-05-26T23:22:59.703Z,70.23
2019-05-26T23:25:28.558Z,70.30
2019-05-26T23:27:57.734Z,70.33
2019-05-26T23:30:26.709Z,70.50
2019-05-26T23:32:55.535Z,70.49
2019-05-26T23:35:24.565Z,70.73
2019-05-26T23:37:53.424Z,70.92
2019-05-26T23:40:22.678Z,70.98
2019-05-26T23:42:51.744Z,71.06
2019-05-26T23:45:20.663Z,71.21
2019-05-26T23:47:49.802Z,71.19
2019-05-26T23:50:19.070Z,71.02
2019-05-26T23:52:48.559Z,71.08
2019-05-26T23:55:17.507Z,71.14
2019-05-26T23:57:46.253Z,71.16
